createdAt,value
2022-11-29T00:00:32.143Z,8.13
2022-11-29T00:01:32.301Z,8.13
2022-11-29T00:02:32.189Z,8.13
2022-11-29T00:03:32.082Z,8.12
2022-11-29T00:04:32.092Z,8.12
2022-11-29T00:05:32.060Z,8.09
2022-11-29T00:06:32.272Z,8.08
2022-11-29T00:07:32.053Z,8.08
2022-11-29T00:08:32.038Z,8.05
2022-11-29T00:09:31.991Z,8.05
2022-11-29T00:10:32.001Z,8.05
2022-11-29T00:11:32.179Z,8.03
2022-11-29T00:12:31.980Z,8.01
2022-11-29T00:13:31.938Z,8.03
2022-11-29T00:14:31.956Z,8.03
2022-11-29T00:15:31.945Z,8.03
2022-11-29T00:16:32.195Z,8.03
2022-11-29T00:17:31.894Z,8.01
2022-11-29T00:18:31.935Z,8.01
2022-11-29T00:19:31.867Z,8.00
2022-11-29T00:20:31.890Z,8.00
2022-11-29T00:21:32.040Z,8.01
2022-11-29T00:22:31.865Z,8.03
2022-11-29T00:23:31.813Z,8.01
2022-11-29T00:24:31.829Z,8.03
2022-11-29T00:25:31.805Z,8.01
2022-11-29T00:26:31.819Z,8.01
2022-11-29T00:27:31.768Z,8.01
2022-11-29T00:28:31.778Z,8.00
2022-11-29T00:29:31.741Z,8.01
2022-11-29T00:30:31.821Z,8.01
2022-11-29T00:31:31.915Z,8.00
2022-11-29T00:32:31.728Z,8.03
2022-11-29T00:33:31.686Z,8.03
2022-11-29T00:34:31.695Z,8.03
2022-11-29T00:35:31.668Z,8.03
2022-11-29T00:36:31.857Z,8.03
2022-11-29T00:37:31.636Z,8.03
2022-11-29T00:38:31.662Z,8.03
2022-11-29T00:39:31.605Z,8.01
2022-11-29T00:40:31.614Z,8.01
2022-11-29T00:41:31.776Z,8.03
2022-11-29T00:42:31.581Z,8.01
2022-11-29T00:43:31.582Z,8.03
2022-11-29T00:44:31.579Z,8.01
2022-11-29T00:45:31.552Z,8.01
2022-11-29T00:46:31.752Z,8.03
2022-11-29T00:47:31.503Z,8.01
2022-11-29T00:48:31.507Z,8.00
2022-11-29T00:49:31.482Z,8.00
2022-11-29T00:50:31.497Z,8.00
2022-11-29T00:51:31.657Z,8.00
2022-11-29T00:52:31.455Z,7.97
2022-11-29T00:53:31.427Z,7.97
2022-11-29T00:54:31.438Z,8.01
2022-11-29T00:55:31.396Z,7.97
2022-11-29T00:56:31.607Z,7.98
2022-11-29T00:57:31.383Z,7.97
2022-11-29T00:58:31.379Z,7.98
2022-11-29T00:59:31.346Z,7.97
2022-11-29T01:00:31.352Z,7.94
2022-11-29T01:01:31.604Z,7.95
2022-11-29T01:02:31.401Z,7.95
2022-11-29T01:03:31.304Z,7.94
2022-11-29T01:04:31.304Z,7.95
2022-11-29T01:05:31.470Z,7.95
2022-11-29T01:06:31.292Z,7.95
2022-11-29T01:07:31.309Z,7.94
2022-11-29T01:08:31.250Z,7.94
2022-11-29T01:09:31.218Z,7.94
2022-11-29T01:10:31.438Z,7.93
2022-11-29T01:11:31.188Z,7.93
2022-11-29T01:12:31.231Z,7.91
2022-11-29T01:13:31.174Z,7.91
2022-11-29T01:14:31.186Z,7.90
2022-11-29T01:15:31.341Z,7.90
2022-11-29T01:16:31.245Z,7.90
2022-11-29T01:17:31.120Z,7.88
2022-11-29T01:18:31.115Z,7.87
2022-11-29T01:19:31.085Z,7.85
2022-11-29T01:20:31.304Z,7.83
2022-11-29T01:21:31.081Z,7.83
2022-11-29T01:22:31.084Z,7.83
2022-11-29T01:23:31.035Z,7.85
2022-11-29T01:24:31.053Z,7.83
2022-11-29T01:25:31.019Z,7.85
2022-11-29T01:26:31.217Z,7.80
2022-11-29T01:27:30.986Z,7.83
2022-11-29T01:28:30.996Z,7.82
2022-11-29T01:29:30.959Z,7.80
2022-11-29T01:30:30.992Z,7.80
2022-11-29T01:31:31.161Z,7.80
2022-11-29T01:32:30.937Z,7.82
2022-11-29T01:33:30.907Z,7.80
2022-11-29T01:34:30.923Z,7.82
2022-11-29T01:35:30.889Z,7.83
2022-11-29T01:36:31.087Z,7.82
2022-11-29T01:37:30.852Z,7.80
2022-11-29T01:38:30.855Z,7.82
2022-11-29T01:39:30.833Z,7.82
2022-11-29T01:40:30.842Z,7.80
2022-11-29T01:41:31.003Z,7.79
2022-11-29T01:42:30.811Z,7.77
2022-11-29T01:43:30.782Z,7.80
2022-11-29T01:44:30.802Z,7.77
2022-11-29T01:45:30.753Z,7.79
2022-11-29T01:46:30.996Z,7.79
2022-11-29T01:47:30.727Z,7.77
2022-11-29T01:48:30.740Z,7.79
2022-11-29T01:49:30.699Z,7.79
2022-11-29T01:50:30.726Z,7.77
2022-11-29T01:51:30.691Z,7.77
2022-11-29T01:52:30.882Z,7.76
2022-11-29T01:53:30.647Z,7.76
2022-11-29T01:54:30.666Z,7.76
2022-11-29T01:55:30.688Z,7.77
2022-11-29T01:56:30.632Z,7.76
2022-11-29T01:57:30.797Z,7.76
2022-11-29T01:58:30.613Z,7.77
2022-11-29T01:59:30.573Z,7.76
2022-11-29T02:00:30.590Z,7.76
2022-11-29T02:01:30.611Z,7.75
2022-11-29T02:02:30.799Z,7.73
2022-11-29T02:03:30.519Z,7.75
2022-11-29T02:04:30.539Z,7.75
2022-11-29T02:05:30.501Z,7.73
2022-11-29T02:06:30.533Z,7.70
2022-11-29T02:07:30.704Z,7.70
2022-11-29T02:08:30.482Z,7.69
2022-11-29T02:09:30.463Z,7.69
2022-11-29T02:10:30.469Z,7.67
2022-11-29T02:11:30.433Z,7.69
2022-11-29T02:12:30.651Z,7.67
2022-11-29T02:13:30.387Z,7.66
2022-11-29T02:14:30.423Z,7.67
2022-11-29T02:15:30.402Z,7.66
2022-11-29T02:16:30.383Z,7.63
2022-11-29T02:17:30.535Z,7.63
2022-11-29T02:18:30.363Z,7.63
2022-11-29T02:19:30.366Z,7.66
2022-11-29T02:20:30.353Z,7.67
2022-11-29T02:21:30.334Z,7.66
2022-11-29T02:22:30.533Z,7.63
2022-11-29T02:23:30.263Z,7.63
2022-11-29T02:24:30.262Z,7.63
2022-11-29T02:25:30.234Z,7.63
2022-11-29T02:26:30.248Z,7.61
2022-11-29T02:27:30.218Z,7.61
2022-11-29T02:28:30.441Z,7.66
2022-11-29T02:29:30.187Z,7.66
2022-11-29T02:30:30.250Z,7.66
2022-11-29T02:31:30.160Z,7.61
2022-11-29T02:32:30.380Z,7.67
2022-11-29T02:33:30.139Z,7.67
2022-11-29T02:34:30.176Z,7.66
2022-11-29T02:35:30.108Z,7.66
2022-11-29T02:36:30.125Z,7.66
2022-11-29T02:37:30.356Z,7.66
2022-11-29T02:38:30.100Z,7.63
2022-11-29T02:39:30.076Z,7.66
2022-11-29T02:40:30.070Z,7.66
2022-11-29T02:41:30.033Z,7.63
2022-11-29T02:42:30.052Z,7.61
2022-11-29T02:43:30.205Z,7.61
2022-11-29T02:44:30.022Z,7.60
2022-11-29T02:45:29.970Z,7.63
2022-11-29T02:46:30.042Z,7.61
2022-11-29T02:47:29.967Z,7.61
2022-11-29T02:48:30.298Z,7.63
2022-11-29T02:49:29.951Z,7.61
2022-11-29T02:50:29.909Z,7.63
2022-11-29T02:51:29.962Z,7.63
2022-11-29T02:52:29.887Z,7.67
2022-11-29T02:53:30.096Z,7.66
2022-11-29T02:54:29.881Z,7.69
2022-11-29T02:55:29.878Z,7.69
2022-11-29T02:56:29.842Z,7.67
2022-11-29T02:57:29.854Z,7.66
2022-11-29T02:58:30.023Z,7.67
2022-11-29T02:59:29.832Z,7.63
2022-11-29T03:00:29.782Z,7.66
2022-11-29T03:01:29.818Z,7.66
2022-11-29T03:02:29.795Z,7.66
2022-11-29T03:03:29.977Z,7.66
2022-11-29T03:04:29.743Z,7.66
2022-11-29T03:05:29.750Z,7.66
2022-11-29T03:06:29.732Z,7.66
2022-11-29T03:07:29.755Z,7.67
2022-11-29T03:08:29.881Z,7.67
2022-11-29T03:09:29.698Z,7.66
2022-11-29T03:10:29.661Z,7.66
2022-11-29T03:11:29.676Z,7.67
2022-11-29T03:12:29.629Z,7.69
2022-11-29T03:13:29.837Z,7.67
2022-11-29T03:14:29.614Z,7.67
2022-11-29T03:15:29.651Z,7.69
2022-11-29T03:16:29.573Z,7.70
2022-11-29T03:17:29.795Z,7.70
2022-11-29T03:18:29.556Z,7.70
2022-11-29T03:19:29.553Z,7.70
2022-11-29T03:20:29.538Z,7.72
2022-11-29T03:21:29.542Z,7.70
2022-11-29T03:22:29.523Z,7.72
2022-11-29T03:23:29.712Z,7.70
2022-11-29T03:24:29.488Z,7.72
2022-11-29T03:25:29.489Z,7.69
2022-11-29T03:26:29.464Z,7.70
2022-11-29T03:27:29.450Z,7.67
2022-11-29T03:28:29.645Z,7.66
2022-11-29T03:29:29.437Z,7.67
2022-11-29T03:30:29.410Z,7.67
2022-11-29T03:31:29.506Z,7.69
2022-11-29T03:32:29.380Z,7.67
2022-11-29T03:33:29.587Z,7.69
2022-11-29T03:34:29.335Z,7.69
2022-11-29T03:35:29.345Z,7.69
2022-11-29T03:36:29.325Z,7.69
2022-11-29T03:37:29.343Z,7.69
2022-11-29T03:38:29.493Z,7.69
2022-11-29T03:39:29.303Z,7.66
2022-11-29T03:40:29.274Z,7.61
2022-11-29T03:41:29.277Z,7.61
2022-11-29T03:42:29.240Z,7.61
2022-11-29T03:43:29.459Z,7.60
2022-11-29T03:44:29.219Z,7.58
2022-11-29T03:45:29.240Z,7.58
2022-11-29T03:46:29.236Z,7.57
2022-11-29T03:47:29.179Z,7.57
2022-11-29T03:48:29.388Z,7.57
2022-11-29T03:49:29.148Z,7.56
2022-11-29T03:50:29.171Z,7.54
2022-11-29T03:51:37.240Z,7.53
2022-11-29T03:52:29.123Z,7.53
2022-11-29T03:53:29.423Z,7.54
2022-11-29T03:54:30.041Z,7.56
2022-11-29T03:55:29.072Z,7.54
2022-11-29T03:56:29.092Z,7.53
2022-11-29T03:57:29.042Z,7.54
2022-11-29T03:58:30.240Z,7.54
2022-11-29T03:59:29.959Z,7.53
2022-11-29T04:00:29.019Z,7.48
2022-11-29T04:01:29.074Z,7.48
2022-11-29T04:02:29.032Z,7.45
2022-11-29T04:03:29.223Z,7.43
2022-11-29T04:04:29.028Z,7.43
2022-11-29T04:05:28.935Z,7.42
2022-11-29T04:06:28.954Z,7.40
2022-11-29T04:07:28.948Z,7.43
2022-11-29T04:08:29.125Z,7.42
2022-11-29T04:09:28.894Z,7.42
2022-11-29T04:10:28.944Z,7.42
2022-11-29T04:11:28.862Z,7.42
2022-11-29T04:12:29.017Z,7.42
2022-11-29T04:13:29.042Z,7.39
2022-11-29T04:14:28.842Z,7.40
2022-11-29T04:15:28.810Z,7.38
2022-11-29T04:16:28.820Z,7.35
2022-11-29T04:17:28.779Z,7.31
2022-11-29T04:18:28.801Z,7.29
2022-11-29T04:19:28.948Z,7.24
2022-11-29T04:20:28.768Z,7.25
2022-11-29T04:21:28.728Z,7.23
2022-11-29T04:22:28.746Z,7.21
2022-11-29T04:23:28.708Z,7.21
2022-11-29T04:24:28.905Z,7.21
2022-11-29T04:25:28.676Z,7.23
2022-11-29T04:26:33.574Z,7.21
2022-11-29T04:27:29.656Z,7.20
2022-11-29T04:28:28.673Z,7.20
2022-11-29T04:29:29.393Z,7.20
2022-11-29T04:30:28.630Z,7.18
2022-11-29T04:31:28.701Z,7.17
2022-11-29T04:32:28.613Z,7.17
2022-11-29T04:33:28.571Z,7.18
2022-11-29T04:34:28.771Z,7.17
2022-11-29T04:35:28.553Z,7.15
2022-11-29T04:36:28.559Z,7.15
2022-11-29T04:37:28.519Z,7.15
2022-11-29T04:38:28.540Z,7.14
2022-11-29T04:39:28.769Z,7.14
2022-11-29T04:40:28.497Z,7.10
2022-11-29T04:41:28.489Z,7.07
2022-11-29T04:42:28.489Z,7.10
2022-11-29T04:43:28.446Z,7.10
2022-11-29T04:44:28.695Z,7.06
2022-11-29T04:45:28.435Z,7.06
2022-11-29T04:46:29.235Z,7.03
2022-11-29T04:47:28.394Z,7.03
2022-11-29T04:48:28.405Z,7.00
2022-11-29T04:49:28.736Z,7.02
2022-11-29T04:50:28.400Z,6.99
2022-11-29T04:51:28.365Z,6.97
2022-11-29T04:52:28.351Z,6.99
2022-11-29T04:53:28.361Z,6.99
2022-11-29T04:54:28.531Z,7.00
2022-11-29T04:55:31.006Z,6.99
2022-11-29T04:56:28.289Z,7.00
2022-11-29T04:57:28.329Z,7.00
2022-11-29T04:58:28.279Z,7.00
2022-11-29T04:59:28.499Z,7.00
2022-11-29T05:00:28.319Z,7.00
2022-11-29T05:01:28.238Z,6.99
2022-11-29T05:02:28.237Z,6.99
2022-11-29T05:03:28.185Z,6.97
2022-11-29T05:04:28.382Z,6.96
2022-11-29T05:05:28.177Z,6.97
2022-11-29T05:06:28.153Z,6.96
2022-11-29T05:07:28.184Z,6.96
2022-11-29T05:08:28.143Z,6.96
2022-11-29T05:09:28.300Z,6.95
2022-11-29T05:10:28.112Z,6.96
2022-11-29T05:11:28.072Z,6.97
2022-11-29T05:12:28.150Z,6.96
2022-11-29T05:13:28.050Z,6.96
2022-11-29T05:14:28.320Z,7.00
2022-11-29T05:15:29.007Z,7.05
2022-11-29T05:16:28.081Z,7.00
2022-11-29T05:17:27.998Z,6.97
2022-11-29T05:18:27.998Z,6.97
2022-11-29T05:19:27.997Z,6.97
2022-11-29T05:20:27.989Z,6.97
2022-11-29T05:21:27.946Z,6.97
2022-11-29T05:22:28.006Z,6.97
2022-11-29T05:23:27.918Z,6.99
2022-11-29T05:24:28.148Z,6.97
2022-11-29T05:25:27.898Z,7.00
2022-11-29T05:26:27.911Z,6.99
2022-11-29T05:27:27.864Z,6.97
2022-11-29T05:28:27.864Z,6.99
2022-11-29T05:29:28.042Z,7.00
2022-11-29T05:30:28.782Z,7.02
2022-11-29T05:31:27.867Z,7.02
2022-11-29T05:32:27.821Z,7.03
2022-11-29T05:33:27.789Z,7.03
2022-11-29T05:34:33.225Z,7.05
2022-11-29T05:35:28.759Z,7.05
2022-11-29T05:36:27.853Z,7.06
2022-11-29T05:37:27.749Z,7.06
2022-11-29T05:38:27.756Z,7.06
2022-11-29T05:39:27.908Z,7.07
2022-11-29T05:40:28.676Z,7.07
2022-11-29T05:41:27.686Z,7.10
2022-11-29T05:42:27.705Z,7.07
2022-11-29T05:43:27.664Z,7.10
2022-11-29T05:44:27.855Z,7.13
2022-11-29T05:45:27.712Z,7.10
2022-11-29T05:46:27.667Z,7.10
2022-11-29T05:47:31.424Z,7.10
2022-11-29T05:48:27.612Z,7.10
2022-11-29T05:49:27.783Z,7.11
2022-11-29T05:50:27.593Z,7.10
2022-11-29T05:51:27.559Z,7.07
2022-11-29T05:52:27.557Z,7.07
2022-11-29T05:53:27.530Z,7.07
2022-11-29T05:54:27.888Z,7.07
2022-11-29T05:55:27.522Z,7.10
2022-11-29T05:56:27.499Z,7.10
2022-11-29T05:57:27.483Z,7.10
2022-11-29T05:58:30.576Z,7.03
2022-11-29T05:59:27.662Z,7.03
2022-11-29T06:00:27.466Z,7.03
2022-11-29T06:01:27.516Z,7.03
2022-11-29T06:02:27.611Z,7.05
2022-11-29T06:03:27.394Z,7.02
2022-11-29T06:04:27.516Z,7.05
2022-11-29T06:05:27.373Z,7.03
2022-11-29T06:06:27.394Z,7.02
2022-11-29T06:07:27.396Z,7.03
2022-11-29T06:08:27.424Z,7.03
2022-11-29T06:09:27.525Z,7.03
2022-11-29T06:10:27.461Z,7.03
2022-11-29T06:11:27.296Z,7.03
2022-11-29T06:12:27.290Z,7.05
2022-11-29T06:13:27.266Z,7.06
2022-11-29T06:14:27.309Z,7.07
2022-11-29T06:15:27.263Z,7.07
2022-11-29T06:16:27.273Z,7.11
2022-11-29T06:17:27.220Z,7.11
2022-11-29T06:18:27.248Z,7.14
2022-11-29T06:19:27.646Z,7.15
2022-11-29T06:20:27.196Z,7.17
2022-11-29T06:21:27.164Z,7.18
2022-11-29T06:22:27.200Z,7.17
2022-11-29T06:23:27.086Z,7.18
2022-11-29T06:24:27.338Z,7.18
2022-11-29T06:25:27.116Z,7.15
2022-11-29T06:26:27.084Z,7.15
2022-11-29T06:27:27.032Z,7.14
2022-11-29T06:28:27.100Z,7.14
2022-11-29T06:29:27.321Z,7.14
2022-11-29T06:30:27.157Z,7.15
2022-11-29T06:31:27.050Z,7.17
2022-11-29T06:32:27.051Z,7.17
2022-11-29T06:33:26.960Z,7.20
2022-11-29T06:34:30.838Z,7.21
2022-11-29T06:35:26.926Z,7.21
2022-11-29T06:36:26.946Z,7.23
2022-11-29T06:37:26.905Z,7.21
2022-11-29T06:38:27.663Z,7.23
2022-11-29T06:39:27.067Z,7.21
2022-11-29T06:40:26.883Z,7.20
2022-11-29T06:41:26.856Z,7.20
2022-11-29T06:42:26.945Z,7.20
2022-11-29T06:43:26.825Z,7.20
2022-11-29T06:44:27.782Z,7.20
2022-11-29T06:45:26.794Z,7.20
2022-11-29T06:46:26.827Z,7.20
2022-11-29T06:47:26.852Z,7.21
2022-11-29T06:48:26.794Z,7.23
2022-11-29T06:49:27.218Z,7.23
2022-11-29T06:50:26.750Z,7.23
2022-11-29T06:51:26.718Z,7.20
2022-11-29T06:52:26.722Z,7.18
2022-11-29T06:53:26.702Z,7.15
2022-11-29T06:54:26.709Z,7.13
2022-11-29T06:55:26.957Z,7.10
2022-11-29T06:56:26.685Z,7.10
2022-11-29T06:57:26.673Z,7.10
2022-11-29T06:58:30.262Z,7.10
2022-11-29T06:59:27.615Z,7.07
2022-11-29T07:00:26.834Z,7.07
2022-11-29T07:01:26.628Z,7.06
2022-11-29T07:02:26.640Z,7.03
2022-11-29T07:03:26.568Z,7.05
2022-11-29T07:04:26.649Z,7.05
2022-11-29T07:05:26.735Z,7.06
2022-11-29T07:06:26.569Z,7.07
2022-11-29T07:07:26.608Z,7.10
2022-11-29T07:08:26.584Z,7.11
2022-11-29T07:09:27.422Z,7.14
2022-11-29T07:10:26.722Z,7.15
2022-11-29T07:11:26.462Z,7.14
2022-11-29T07:12:26.477Z,7.15
2022-11-29T07:13:26.436Z,7.17
2022-11-29T07:14:26.469Z,7.17
2022-11-29T07:15:26.609Z,7.15
2022-11-29T07:16:26.429Z,7.18
2022-11-29T07:17:26.379Z,7.18
2022-11-29T07:18:26.387Z,7.21
2022-11-29T07:19:26.357Z,7.21
2022-11-29T07:20:26.567Z,7.23
2022-11-29T07:21:26.335Z,7.23
2022-11-29T07:22:26.345Z,7.25
2022-11-29T07:23:26.312Z,7.28
2022-11-29T07:24:26.320Z,7.31
2022-11-29T07:25:26.532Z,7.31
2022-11-29T07:26:27.243Z,7.32
2022-11-29T07:27:26.252Z,7.33
2022-11-29T07:28:26.311Z,7.35
2022-11-29T07:29:26.229Z,7.36
2022-11-29T07:30:26.495Z,7.39
2022-11-29T07:31:26.259Z,7.39
2022-11-29T07:32:26.225Z,7.38
2022-11-29T07:33:26.180Z,7.40
2022-11-29T07:34:26.879Z,7.40
2022-11-29T07:35:26.347Z,7.39
2022-11-29T07:36:26.155Z,7.40
2022-11-29T07:37:26.127Z,7.43
2022-11-29T07:38:26.128Z,7.42
2022-11-29T07:39:26.105Z,7.42
2022-11-29T07:40:26.345Z,7.42
2022-11-29T07:41:26.072Z,7.42
2022-11-29T07:42:26.083Z,7.42
2022-11-29T07:43:26.055Z,7.42
2022-11-29T07:44:26.066Z,7.40
2022-11-29T07:45:26.212Z,7.36
2022-11-29T07:46:26.091Z,7.32
2022-11-29T07:47:25.991Z,7.25
2022-11-29T07:48:26.033Z,7.23
2022-11-29T07:49:25.978Z,7.17
2022-11-29T07:50:26.264Z,7.18
2022-11-29T07:51:25.940Z,7.20
2022-11-29T07:52:27.602Z,7.21
2022-11-29T07:53:25.920Z,7.23
2022-11-29T07:54:25.919Z,7.24
2022-11-29T07:55:26.090Z,7.28
2022-11-29T07:56:25.909Z,7.31
2022-11-29T07:57:25.866Z,7.25
2022-11-29T07:58:25.904Z,7.24
2022-11-29T07:59:25.835Z,7.23
2022-11-29T08:00:26.077Z,7.21
2022-11-29T08:01:25.941Z,7.24
2022-11-29T08:02:25.849Z,7.25
2022-11-29T08:03:26.562Z,7.32
2022-11-29T08:04:25.813Z,7.33
2022-11-29T08:05:25.976Z,7.38
2022-11-29T08:06:25.754Z,7.38
2022-11-29T08:07:25.816Z,7.40
2022-11-29T08:08:25.722Z,7.40
2022-11-29T08:09:25.743Z,7.39
2022-11-29T08:10:25.897Z,7.39
2022-11-29T08:11:25.718Z,7.42
2022-11-29T08:12:25.669Z,7.45
2022-11-29T08:13:25.689Z,7.45
2022-11-29T08:14:25.647Z,7.48
2022-11-29T08:15:26.797Z,7.51
2022-11-29T08:16:25.645Z,7.50
2022-11-29T08:17:25.639Z,7.47
2022-11-29T08:18:25.596Z,7.42
2022-11-29T08:19:25.609Z,7.38
2022-11-29T08:20:25.774Z,7.40
2022-11-29T08:21:25.575Z,7.40
2022-11-29T08:22:25.542Z,7.42
2022-11-29T08:23:25.544Z,7.43
2022-11-29T08:24:25.514Z,7.45
2022-11-29T08:25:25.712Z,7.48
2022-11-29T08:26:29.812Z,7.51
2022-11-29T08:27:26.604Z,7.56
2022-11-29T08:28:25.462Z,7.57
2022-11-29T08:29:25.481Z,7.56
2022-11-29T08:30:25.649Z,7.54
2022-11-29T08:31:25.488Z,7.54
2022-11-29T08:32:25.410Z,7.56
2022-11-29T08:33:25.423Z,7.54
2022-11-29T08:34:25.391Z,7.56
2022-11-29T08:35:25.427Z,7.57
2022-11-29T08:36:25.367Z,7.56
2022-11-29T08:37:25.370Z,7.54
2022-11-29T08:38:25.336Z,7.56
2022-11-29T08:39:26.176Z,7.54
2022-11-29T08:40:25.795Z,7.51
2022-11-29T08:41:25.345Z,7.45
2022-11-29T08:42:25.305Z,7.48
2022-11-29T08:43:25.284Z,7.48
2022-11-29T08:44:25.262Z,7.51
2022-11-29T08:45:25.631Z,7.54
2022-11-29T08:46:25.256Z,7.51
2022-11-29T08:47:25.253Z,7.51
2022-11-29T08:48:25.211Z,7.50
2022-11-29T08:49:25.224Z,7.53
2022-11-29T08:50:25.474Z,7.54
2022-11-29T08:51:25.201Z,7.60
2022-11-29T08:52:25.156Z,7.61
2022-11-29T08:53:25.262Z,7.67
2022-11-29T08:54:25.129Z,7.67
2022-11-29T08:55:25.366Z,7.70
2022-11-29T08:57:10.099Z,7.69
2022-11-29T08:57:41.585Z,7.70
2022-11-29T08:58:26.076Z,7.70
2022-11-29T08:59:25.104Z,7.72
2022-11-29T09:00:25.267Z,7.73
2022-11-29T09:01:25.134Z,7.73
2022-11-29T09:02:25.206Z,7.75
2022-11-29T09:03:25.033Z,7.73
2022-11-29T09:04:25.004Z,7.77
2022-11-29T09:05:26.153Z,7.76
2022-11-29T09:06:24.972Z,7.76
2022-11-29T09:07:25.006Z,7.76
2022-11-29T09:08:24.941Z,7.79
2022-11-29T09:09:24.965Z,7.79
2022-11-29T09:10:25.121Z,7.79
2022-11-29T09:11:25.013Z,7.79
2022-11-29T09:12:24.890Z,7.83
2022-11-29T09:13:24.916Z,7.87
2022-11-29T09:14:24.867Z,7.85
2022-11-29T09:15:25.172Z,7.88
2022-11-29T09:16:24.877Z,7.85
2022-11-29T09:17:24.848Z,7.87
2022-11-29T09:18:24.905Z,7.87
2022-11-29T09:19:24.827Z,7.87
2022-11-29T09:20:25.036Z,7.87
2022-11-29T09:21:24.794Z,7.88
2022-11-29T09:22:24.765Z,7.91
2022-11-29T09:23:24.773Z,7.91
2022-11-29T09:24:24.743Z,7.90
2022-11-29T09:25:24.956Z,7.85
2022-11-29T09:26:24.721Z,7.82
2022-11-29T09:27:24.729Z,7.85
2022-11-29T09:28:24.690Z,7.88
2022-11-29T09:29:25.642Z,7.80
2022-11-29T09:30:25.012Z,7.82
2022-11-29T09:31:24.715Z,7.85
2022-11-29T09:32:24.636Z,7.90
2022-11-29T09:33:24.638Z,7.90
2022-11-29T09:34:24.610Z,7.94
2022-11-29T09:35:24.817Z,7.95
2022-11-29T09:36:28.568Z,7.98
2022-11-29T09:37:24.602Z,8.00
2022-11-29T09:38:25.318Z,8.00
2022-11-29T09:39:24.574Z,7.98
2022-11-29T09:40:24.534Z,8.00
2022-11-29T09:41:24.754Z,8.01
2022-11-29T09:42:24.514Z,8.01
2022-11-29T09:43:24.512Z,8.03
2022-11-29T09:44:24.480Z,8.05
2022-11-29T09:45:24.491Z,8.06
2022-11-29T09:46:24.659Z,8.08
2022-11-29T09:47:24.528Z,8.06
2022-11-29T09:48:24.429Z,8.00
2022-11-29T09:49:24.451Z,8.03
2022-11-29T09:50:24.408Z,8.03
2022-11-29T09:51:24.944Z,8.06
2022-11-29T09:52:31.429Z,8.08
2022-11-29T09:53:26.242Z,8.09
2022-11-29T09:54:24.352Z,8.10
2022-11-29T09:55:24.368Z,8.13
2022-11-29T09:56:24.541Z,8.13
2022-11-29T09:57:24.360Z,8.15
2022-11-29T09:58:24.300Z,8.16
2022-11-29T09:59:24.339Z,8.19
2022-11-29T10:00:24.278Z,8.19
2022-11-29T10:01:24.612Z,8.10
2022-11-29T10:02:24.267Z,8.10
2022-11-29T10:03:24.266Z,8.13
2022-11-29T10:04:24.227Z,8.12
2022-11-29T10:05:24.226Z,8.16
2022-11-29T10:06:24.402Z,8.19
2022-11-29T10:07:24.237Z,8.20
2022-11-29T10:08:24.166Z,8.23
2022-11-29T10:09:24.191Z,8.27
2022-11-29T10:10:24.152Z,8.30
2022-11-29T10:11:24.362Z,8.34
2022-11-29T10:12:24.123Z,8.37
2022-11-29T10:13:24.144Z,8.38
2022-11-29T10:14:24.093Z,8.42
2022-11-29T10:15:24.299Z,8.44
2022-11-29T10:16:24.114Z,8.44
2022-11-29T10:17:24.087Z,8.46
2022-11-29T10:18:24.042Z,8.49
2022-11-29T10:19:24.041Z,8.49
2022-11-29T10:20:24.218Z,8.52
2022-11-29T10:21:24.030Z,8.52
2022-11-29T10:22:24.047Z,8.53
2022-11-29T10:23:24.104Z,8.53
2022-11-29T10:24:23.959Z,8.51
2022-11-29T10:25:24.209Z,8.52
2022-11-29T10:26:23.933Z,8.52
2022-11-29T10:27:23.973Z,8.51
2022-11-29T10:28:23.915Z,8.49
2022-11-29T10:29:23.920Z,8.49
2022-11-29T10:30:24.138Z,8.48
2022-11-29T10:31:23.903Z,8.49
2022-11-29T10:32:23.856Z,8.48
2022-11-29T10:33:23.872Z,8.48
2022-11-29T10:34:23.831Z,8.41
2022-11-29T10:35:24.066Z,8.42
2022-11-29T10:36:23.821Z,8.42
2022-11-29T10:37:23.822Z,8.44
2022-11-29T10:38:30.746Z,8.48
2022-11-29T10:39:24.794Z,8.48
2022-11-29T10:40:24.015Z,8.51
2022-11-29T10:41:23.762Z,8.52
2022-11-29T10:42:23.727Z,8.52
2022-11-29T10:43:23.728Z,8.51
2022-11-29T10:44:23.696Z,8.51
2022-11-29T10:45:23.717Z,8.53
2022-11-29T10:46:23.921Z,8.53
2022-11-29T10:47:23.699Z,8.56
2022-11-29T10:48:23.667Z,8.58
2022-11-29T10:49:23.653Z,8.55
2022-11-29T10:50:23.623Z,8.55
2022-11-29T10:51:24.002Z,8.53
2022-11-29T10:52:23.604Z,8.55
2022-11-29T10:53:23.814Z,8.55
2022-11-29T10:54:23.575Z,8.55
2022-11-29T10:55:23.577Z,8.55
2022-11-29T10:56:23.749Z,8.55
2022-11-29T10:57:23.560Z,8.56
2022-11-29T10:58:27.959Z,8.58
2022-11-29T10:59:24.528Z,8.61
2022-11-29T11:00:23.499Z,8.61
2022-11-29T11:01:23.885Z,8.63
2022-11-29T11:02:23.477Z,8.66
2022-11-29T11:03:23.496Z,8.63
2022-11-29T11:04:23.456Z,8.60
2022-11-29T11:05:23.496Z,8.61
2022-11-29T11:06:23.617Z,8.55
2022-11-29T11:07:23.514Z,8.53
2022-11-29T11:08:23.394Z,8.55
2022-11-29T11:09:23.394Z,8.56
2022-11-29T11:10:23.389Z,8.56
2022-11-29T11:11:23.571Z,8.56
2022-11-29T11:12:23.346Z,8.56
2022-11-29T11:13:23.361Z,8.58
2022-11-29T11:14:23.323Z,8.61
2022-11-29T11:15:23.337Z,8.63
2022-11-29T11:16:23.516Z,8.56
2022-11-29T11:17:23.320Z,8.45
2022-11-29T11:18:23.272Z,8.41
2022-11-29T11:19:23.283Z,8.42
2022-11-29T11:20:23.240Z,8.45
2022-11-29T11:21:23.458Z,8.49
2022-11-29T11:22:23.217Z,8.55
2022-11-29T11:23:23.219Z,8.55
2022-11-29T11:24:23.186Z,8.56
2022-11-29T11:25:23.193Z,8.58
2022-11-29T11:26:23.395Z,8.51
2022-11-29T11:27:23.187Z,8.52
2022-11-29T11:28:23.150Z,8.51
2022-11-29T11:29:23.228Z,8.53
2022-11-29T11:30:23.128Z,8.55
2022-11-29T11:31:23.354Z,8.56
2022-11-29T11:32:23.102Z,8.58
2022-11-29T11:33:23.102Z,8.61
2022-11-29T11:34:23.062Z,8.61
2022-11-29T11:35:23.076Z,8.64
2022-11-29T11:36:23.229Z,8.66
2022-11-29T11:37:23.044Z,8.67
2022-11-29T11:38:23.011Z,8.67
2022-11-29T11:39:23.024Z,8.70
2022-11-29T11:40:23.025Z,8.71
2022-11-29T11:41:23.219Z,8.74
2022-11-29T11:42:22.963Z,8.76
2022-11-29T11:43:22.965Z,8.81
2022-11-29T11:45:23.946Z,8.69
2022-11-29T11:46:23.186Z,8.67
2022-11-29T11:47:22.957Z,8.70
2022-11-29T11:48:22.893Z,8.70
2022-11-29T11:49:22.892Z,8.69
2022-11-29T11:50:22.863Z,8.70
2022-11-29T11:51:23.074Z,8.67
2022-11-29T11:52:22.832Z,8.66
2022-11-29T11:53:22.849Z,8.66
2022-11-29T11:54:22.809Z,8.56
2022-11-29T11:55:22.812Z,8.55
2022-11-29T11:56:22.971Z,8.53
2022-11-29T11:57:22.811Z,8.55
2022-11-29T11:58:22.751Z,8.55
2022-11-29T11:59:22.777Z,8.52
2022-11-29T12:00:47.561Z,8.51
2022-11-29T12:01:23.968Z,8.53
2022-11-29T12:02:22.768Z,8.51
2022-11-29T12:03:22.760Z,8.53
2022-11-29T12:04:22.678Z,8.52
2022-11-29T12:05:22.697Z,8.56
2022-11-29T12:06:22.858Z,8.48
2022-11-29T12:07:38.728Z,8.44
2022-11-29T12:08:23.673Z,8.42
2022-11-29T12:09:22.643Z,8.44
2022-11-29T12:10:22.606Z,8.44
2022-11-29T12:11:22.813Z,8.45
2022-11-29T12:12:22.574Z,8.48
2022-11-29T12:13:22.614Z,8.45
2022-11-29T12:14:22.582Z,8.48
2022-11-29T12:15:22.546Z,8.48
2022-11-29T12:16:22.761Z,8.48
2022-11-29T12:17:22.512Z,8.51
2022-11-29T12:18:22.534Z,8.51
2022-11-29T12:19:22.489Z,8.52
2022-11-29T12:20:22.513Z,8.53
2022-11-29T12:21:22.658Z,8.55
2022-11-29T12:22:22.458Z,8.58
2022-11-29T12:23:22.437Z,8.56
2022-11-29T12:24:22.455Z,8.52
2022-11-29T12:25:22.415Z,8.42
2022-11-29T12:26:55.300Z,8.38
2022-11-29T12:27:23.391Z,8.37
2022-11-29T12:28:22.400Z,8.41
2022-11-29T12:29:22.402Z,8.42
2022-11-29T12:30:22.365Z,8.45
2022-11-29T12:31:22.625Z,8.44
2022-11-29T12:32:22.345Z,8.44
2022-11-29T12:33:22.314Z,8.44
2022-11-29T12:34:22.864Z,8.42
2022-11-29T12:35:22.284Z,8.42
2022-11-29T12:36:22.532Z,8.41
2022-11-29T12:37:22.264Z,8.34
2022-11-29T12:38:22.309Z,8.27
2022-11-29T12:39:22.258Z,8.26
2022-11-29T12:40:22.260Z,8.28
2022-11-29T12:41:22.467Z,8.27
2022-11-29T12:42:22.418Z,8.20
2022-11-29T12:43:22.179Z,8.20
2022-11-29T12:44:22.217Z,8.18
2022-11-29T12:45:22.148Z,8.19
2022-11-29T12:46:22.236Z,8.20
2022-11-29T12:47:37.940Z,8.23
2022-11-29T12:48:23.157Z,8.23
2022-11-29T12:49:22.153Z,8.24
2022-11-29T12:50:22.124Z,8.24
2022-11-29T12:51:22.075Z,8.28
2022-11-29T12:52:22.296Z,8.30
2022-11-29T12:53:26.984Z,8.26
2022-11-29T12:54:23.056Z,8.20
2022-11-29T12:55:22.028Z,8.24
2022-11-29T12:56:22.243Z,8.23
2022-11-29T12:57:22.000Z,8.19
2022-11-29T12:58:22.013Z,8.15
2022-11-29T12:59:21.987Z,8.15
2022-11-29T13:00:21.993Z,8.18
2022-11-29T13:01:22.202Z,8.19
2022-11-29T13:02:22.009Z,8.23
2022-11-29T13:03:21.928Z,8.26
2022-11-29T13:04:21.939Z,8.30
2022-11-29T13:05:21.899Z,8.36
2022-11-29T13:06:21.897Z,8.36
2022-11-29T13:07:22.121Z,8.28
2022-11-29T13:08:21.887Z,8.19
2022-11-29T13:09:21.838Z,8.13
2022-11-29T13:10:21.866Z,8.13
2022-11-29T13:11:21.814Z,8.12
2022-11-29T13:12:22.017Z,8.12
2022-11-29T13:13:21.783Z,8.13
2022-11-29T13:14:50.942Z,8.16
2022-11-29T13:15:22.772Z,8.16
2022-11-29T13:16:26.322Z,8.15
2022-11-29T13:17:22.942Z,8.20
2022-11-29T13:18:21.742Z,8.24
2022-11-29T13:19:21.719Z,8.20